createdAt,value
2022-12-25T00:00:21.373Z,11.10
2022-12-25T00:03:11.823Z,11.20
2022-12-25T00:05:51.553Z,10.50
2022-12-25T00:08:23.612Z,11.00
2022-12-25T00:11:00.470Z,11.10
2022-12-25T00:13:38.547Z,11.00
2022-12-25T00:16:21.530Z,11.00
2022-12-25T00:18:58.402Z,11.40
2022-12-25T00:21:31.494Z,11.00
2022-12-25T00:24:05.082Z,10.40
2022-12-25T00:26:35.075Z,12.10
2022-12-25T00:29:08.100Z,11.20
2022-12-25T00:31:42.606Z,10.70
2022-12-25T00:34:18.626Z,10.30
2022-12-25T00:36:52.180Z,11.10
2022-12-25T00:39:26.039Z,10.90
2022-12-25T00:42:14.609Z,12.20
2022-12-25T00:44:45.144Z,11.60
2022-12-25T00:47:21.489Z,9.90
2022-12-25T00:49:56.516Z,12.10
2022-12-25T00:52:34.889Z,14.00
2022-12-25T00:55:08.992Z,12.10
2022-12-25T00:57:47.716Z,10.10
2022-12-25T01:00:21.330Z,12.60
2022-12-25T01:03:02.333Z,11.90
2022-12-25T01:05:36.986Z,10.90
2022-12-25T01:08:11.809Z,10.80
2022-12-25T01:10:44.174Z,11.50
2022-12-25T01:13:18.954Z,11.70
2022-12-25T01:15:54.056Z,10.30
2022-12-25T01:18:29.695Z,10.90
2022-12-25T01:21:08.105Z,11.00
2022-12-25T01:23:44.170Z,11.90
2022-12-25T01:26:25.444Z,10.20
2022-12-25T01:31:40.189Z,10.40
2022-12-25T01:34:19.767Z,10.90
2022-12-25T01:36:55.152Z,10.10
2022-12-25T01:39:27.740Z,10.30
2022-12-25T01:42:05.420Z,10.30
2022-12-25T01:45:38.001Z,10.30
2022-12-25T01:48:14.871Z,10.00
2022-12-25T01:50:47.814Z,9.60
2022-12-25T01:53:25.084Z,10.80
2022-12-25T01:56:05.802Z,9.50
2022-12-25T01:58:39.347Z,9.60
2022-12-25T02:01:14.228Z,9.40
2022-12-25T02:03:46.388Z,9.70
2022-12-25T02:06:26.203Z,9.90
2022-12-25T02:09:03.590Z,10.10
2022-12-25T02:11:56.945Z,10.30
2022-12-25T02:14:38.739Z,9.70
2022-12-25T02:17:16.662Z,10.30
2022-12-25T02:20:16.942Z,11.00
2022-12-25T02:23:11.281Z,9.50
2022-12-25T02:25:58.023Z,9.50
2022-12-25T02:28:35.006Z,9.60
2022-12-25T02:31:17.825Z,8.60
2022-12-25T02:36:49.125Z,9.50
2022-12-25T02:39:44.728Z,8.70
2022-12-25T02:42:45.081Z,9.10
2022-12-25T02:45:38.189Z,9.20
2022-12-25T02:48:34.001Z,9.60
2022-12-25T02:51:37.690Z,9.10
2022-12-25T02:54:36.725Z,8.60
2022-12-25T02:57:31.669Z,8.30
2022-12-25T03:00:25.839Z,8.40
2022-12-25T03:03:20.103Z,7.80
2022-12-25T03:06:11.639Z,8.50
2022-12-25T03:08:53.311Z,8.00
2022-12-25T03:11:33.474Z,8.80
2022-12-25T03:14:27.478Z,8.20
2022-12-25T03:17:01.381Z,7.90
2022-12-25T03:19:53.870Z,8.30
2022-12-25T03:22:49.124Z,8.00
2022-12-25T03:25:40.330Z,7.70
2022-12-25T03:28:17.725Z,7.90
2022-12-25T03:31:14.267Z,8.00
2022-12-25T03:34:33.894Z,7.70
2022-12-25T03:37:53.114Z,8.20
2022-12-25T03:40:47.521Z,7.30
2022-12-25T03:44:08.822Z,7.20
2022-12-25T03:47:09.995Z,8.40
2022-12-25T03:50:08.784Z,7.10
2022-12-25T03:53:00.750Z,7.20
2022-12-25T03:55:52.764Z,7.70
2022-12-25T03:58:46.959Z,7.20
2022-12-25T04:01:43.069Z,8.00
2022-12-25T04:07:20.651Z,7.20
2022-12-25T04:10:18.361Z,8.60
2022-12-25T04:13:11.370Z,7.00
2022-12-25T04:16:07.793Z,8.20
2022-12-25T04:19:01.539Z,7.60
2022-12-25T04:21:59.395Z,7.10
2022-12-25T04:24:49.782Z,7.90
2022-12-25T04:27:42.676Z,6.90
2022-12-25T04:30:33.317Z,7.80
2022-12-25T04:33:23.673Z,6.80
2022-12-25T04:36:11.377Z,7.20
2022-12-25T04:38:44.159Z,7.00
2022-12-25T04:41:20.064Z,7.00
2022-12-25T04:43:59.769Z,7.00
2022-12-25T04:46:35.230Z,6.80
2022-12-25T04:49:12.749Z,8.20
2022-12-25T04:51:47.793Z,8.10
2022-12-25T04:54:20.412Z,7.10
2022-12-25T04:56:55.452Z,7.10
2022-12-25T04:59:30.497Z,8.00
2022-12-25T05:02:07.660Z,6.80
2022-12-25T05:04:43.482Z,7.90
2022-12-25T05:07:18.220Z,8.90
2022-12-25T05:09:54.940Z,7.80
2022-12-25T05:12:32.780Z,6.80
2022-12-25T05:15:06.839Z,8.20
2022-12-25T05:17:37.780Z,7.60
2022-12-25T05:20:10.263Z,7.80
2022-12-25T05:22:45.220Z,6.80
2022-12-25T05:25:23.763Z,6.80
2022-12-25T05:28:03.819Z,6.70
2022-12-25T05:30:41.299Z,6.80
2022-12-25T05:33:14.159Z,8.40
2022-12-25T05:35:54.031Z,7.10
2022-12-25T05:38:26.645Z,7.00
2022-12-25T05:40:58.950Z,6.80
2022-12-25T05:43:32.709Z,6.90
2022-12-25T05:46:08.738Z,7.40
2022-12-25T05:48:44.169Z,7.60
2022-12-25T05:51:19.648Z,7.80
2022-12-25T05:53:56.599Z,7.20
2022-12-25T05:56:34.015Z,7.00
2022-12-25T05:59:09.673Z,7.70
2022-12-25T06:01:47.462Z,7.20
2022-12-25T06:04:22.857Z,7.50
2022-12-25T06:06:58.044Z,7.30
2022-12-25T06:09:35.744Z,8.10
2022-12-25T06:12:06.988Z,7.30
2022-12-25T06:14:37.677Z,6.70
2022-12-25T06:17:09.566Z,7.60
2022-12-25T06:19:50.972Z,6.70
2022-12-25T06:22:29.362Z,7.20
2022-12-25T06:25:05.610Z,6.90
2022-12-25T06:27:40.493Z,7.20
2022-12-25T06:30:16.209Z,7.30
2022-12-25T06:32:50.975Z,7.50
2022-12-25T06:35:26.817Z,6.40
2022-12-25T06:38:01.955Z,7.10
2022-12-25T06:40:37.659Z,7.10
2022-12-25T06:43:10.395Z,7.80
2022-12-25T06:45:43.520Z,7.70
2022-12-25T06:48:13.999Z,7.70
2022-12-25T06:50:45.007Z,7.30
2022-12-25T06:53:22.091Z,8.20
2022-12-25T06:56:03.377Z,7.90
2022-12-25T06:58:37.964Z,7.30
2022-12-25T07:01:15.611Z,8.40
2022-12-25T07:03:53.341Z,7.90
2022-12-25T07:06:29.055Z,7.80
2022-12-25T07:09:04.038Z,8.70
2022-12-25T07:11:41.649Z,7.60
2022-12-25T07:14:24.222Z,8.60
2022-12-25T07:16:59.650Z,8.20
2022-12-25T07:19:45.328Z,7.80
2022-12-25T07:22:19.094Z,8.70
2022-12-25T07:24:54.458Z,8.70
2022-12-25T07:27:32.326Z,7.40
2022-12-25T07:30:09.882Z,8.10
2022-12-25T07:32:50.238Z,8.70
2022-12-25T07:35:27.958Z,8.50
2022-12-25T07:38:03.956Z,9.40
2022-12-25T07:40:38.028Z,9.20
2022-12-25T07:43:15.769Z,9.20
2022-12-25T07:45:55.543Z,8.80
2022-12-25T07:48:33.213Z,8.30
2022-12-25T07:51:11.115Z,8.70
2022-12-25T07:53:48.708Z,7.50
2022-12-25T07:56:21.846Z,8.40
2022-12-25T07:58:59.806Z,8.50
2022-12-25T08:01:35.812Z,8.90
2022-12-25T08:04:11.462Z,9.20
2022-12-25T08:06:44.346Z,9.80
2022-12-25T08:09:17.099Z,8.20
2022-12-25T08:11:52.937Z,8.30
2022-12-25T08:14:28.657Z,8.70
2022-12-25T08:17:09.528Z,9.80
2022-12-25T08:19:45.412Z,8.40
2022-12-25T08:22:17.647Z,8.60
2022-12-25T08:24:52.570Z,9.20
2022-12-25T08:27:30.374Z,8.60
2022-12-25T08:30:02.599Z,9.40
2022-12-25T08:32:42.966Z,9.00
2022-12-25T08:35:16.091Z,8.60
2022-12-25T08:37:50.777Z,8.60
2022-12-25T08:40:25.648Z,9.20
2022-12-25T08:43:04.011Z,8.10
2022-12-25T08:45:43.372Z,8.90
2022-12-25T08:48:14.438Z,8.80
2022-12-25T08:50:48.094Z,10.50
2022-12-25T08:53:21.123Z,9.20
2022-12-25T08:55:57.740Z,9.10
2022-12-25T08:58:28.273Z,9.70
2022-12-25T09:01:00.987Z,9.10
2022-12-25T09:03:33.872Z,9.50
2022-12-25T09:06:09.467Z,9.80
2022-12-25T09:08:49.314Z,9.00
2022-12-25T09:11:27.442Z,9.00
2022-12-25T09:14:05.341Z,9.30
2022-12-25T09:16:45.699Z,9.60
2022-12-25T09:19:25.554Z,8.60
2022-12-25T09:22:01.481Z,8.90
2022-12-25T09:24:38.702Z,9.70
2022-12-25T09:27:15.785Z,9.60
2022-12-25T09:29:51.703Z,9.30
2022-12-25T09:32:26.708Z,8.40
2022-12-25T09:35:05.767Z,7.80
2022-12-25T09:37:38.706Z,8.60
2022-12-25T09:40:15.347Z,8.10
2022-12-25T09:42:49.259Z,9.90
2022-12-25T09:45:32.512Z,7.90
2022-12-25T09:48:09.753Z,8.60
2022-12-25T09:50:51.263Z,8.80
2022-12-25T09:53:29.909Z,9.30
2022-12-25T09:56:08.931Z,10.10
2022-12-25T09:58:44.530Z,15.10
2022-12-25T10:01:27.275Z,15.70
2022-12-25T10:04:31.894Z,14.40
2022-12-25T10:07:18.867Z,13.90
2022-12-25T10:10:03.977Z,16.10
2022-12-25T10:12:48.733Z,15.10
2022-12-25T10:15:33.551Z,15.20
2022-12-25T10:18:27.468Z,15.80
2022-12-25T10:23:40.769Z,17.40
2022-12-25T10:26:17.313Z,17.30
2022-12-25T10:28:54.082Z,14.90
2022-12-25T10:31:29.723Z,14.40
2022-12-25T10:34:02.751Z,14.50
2022-12-25T10:36:36.260Z,17.80
2022-12-25T10:39:09.820Z,15.00
2022-12-25T10:42:10.973Z,15.60
2022-12-25T10:44:56.785Z,16.90
2022-12-25T10:50:06.427Z,15.10
2022-12-25T10:52:58.920Z,14.80
2022-12-25T10:55:31.860Z,14.90
2022-12-25T10:58:06.637Z,14.50
2022-12-25T11:00:44.274Z,15.00
2022-12-25T11:03:25.464Z,13.80
2022-12-25T11:05:58.286Z,13.90
2022-12-25T11:08:39.774Z,12.80
2022-12-25T11:11:23.349Z,12.10
2022-12-25T11:13:58.953Z,12.40
2022-12-25T11:19:19.751Z,13.70
2022-12-25T11:21:57.013Z,11.00
2022-12-25T11:24:32.146Z,12.20
2022-12-25T11:27:21.300Z,11.90
2022-12-25T11:29:56.490Z,10.60
2022-12-25T11:32:40.781Z,10.10
2022-12-25T11:35:18.532Z,11.50
2022-12-25T11:37:54.662Z,11.90
2022-12-25T11:40:41.506Z,11.20
2022-12-25T11:43:19.843Z,12.90
2022-12-25T11:45:58.895Z,11.40
2022-12-25T11:48:41.907Z,10.90
2022-12-25T11:51:16.393Z,12.00
2022-12-25T11:53:56.675Z,11.40
2022-12-25T11:56:31.471Z,14.30
2022-12-25T11:59:16.419Z,10.20
2022-12-25T12:01:59.495Z,9.90
2022-12-25T12:04:44.102Z,10.00
2022-12-25T12:07:26.813Z,11.00
2022-12-25T12:10:11.466Z,10.80
2022-12-25T12:12:54.520Z,11.20
2022-12-25T12:15:30.696Z,10.30
2022-12-25T12:18:23.201Z,9.90
2022-12-25T12:21:21.042Z,9.20
2022-12-25T12:24:03.138Z,9.60
2022-12-25T12:26:42.635Z,9.30
2022-12-25T12:29:30.970Z,15.40
2022-12-25T12:32:06.044Z,47.90
2022-12-25T12:34:49.953Z,43.90
2022-12-25T12:37:26.310Z,58.10
2022-12-25T12:40:01.726Z,42.30
2022-12-25T12:42:39.659Z,28.40
2022-12-25T12:45:21.833Z,31.70
2022-12-25T12:47:57.471Z,31.00
2022-12-25T12:50:37.499Z,31.40
2022-12-25T12:53:39.666Z,25.70
2022-12-25T12:56:21.437Z,23.90
2022-12-25T12:58:58.733Z,22.00
2022-12-25T13:01:48.167Z,22.70
2022-12-25T13:04:56.098Z,20.50
2022-12-25T13:07:54.017Z,19.40
2022-12-25T13:10:32.862Z,19.70
2022-12-25T13:13:07.186Z,19.60
2022-12-25T13:15:47.187Z,18.90
2022-12-25T13:18:19.973Z,17.20
2022-12-25T13:20:56.919Z,17.40
2022-12-25T13:23:35.196Z,16.60
2022-12-25T13:26:14.956Z,16.20
2022-12-25T13:28:48.040Z,15.80
2022-12-25T13:31:26.270Z,15.90
2022-12-25T13:34:08.297Z,15.80
2022-12-25T13:36:41.370Z,16.40
2022-12-25T13:39:18.866Z,15.60
2022-12-25T13:42:09.857Z,15.50
2022-12-25T13:47:25.943Z,15.00
2022-12-25T13:50:01.293Z,14.70
2022-12-25T13:52:37.755Z,14.40
2022-12-25T13:55:15.655Z,14.40
2022-12-25T13:57:52.438Z,13.90
2022-12-25T14:00:31.611Z,14.40
2022-12-25T14:03:17.969Z,14.60
2022-12-25T14:05:56.569Z,14.40
2022-12-25T14:08:31.766Z,14.30
2022-12-25T14:11:06.696Z,14.10
2022-12-25T14:13:47.385Z,14.20
2022-12-25T14:16:18.711Z,13.20
2022-12-25T14:18:58.457Z,13.60
2022-12-25T14:21:37.743Z,13.00
2022-12-25T14:24:14.309Z,12.90
2022-12-25T14:26:45.150Z,13.10
2022-12-25T14:29:19.142Z,12.80
2022-12-25T14:31:57.527Z,12.80
2022-12-25T14:34:32.100Z,12.20
2022-12-25T14:37:02.939Z,13.20
2022-12-25T14:39:38.564Z,13.80
2022-12-25T14:42:21.908Z,12.50
2022-12-25T14:45:03.064Z,13.40
2022-12-25T14:47:49.538Z,13.60
2022-12-25T14:50:31.684Z,12.00
2022-12-25T14:53:02.113Z,12.30
2022-12-25T14:55:32.403Z,14.50
2022-12-25T14:58:07.582Z,12.20
2022-12-25T15:00:39.808Z,12.50
2022-12-25T15:03:24.637Z,12.70
2022-12-25T15:06:01.756Z,14.10
2022-12-25T15:08:33.761Z,12.90
2022-12-25T15:11:04.531Z,13.50
2022-12-25T15:13:36.991Z,11.60
2022-12-25T15:16:14.204Z,13.10
2022-12-25T15:18:51.299Z,12.10
2022-12-25T15:21:28.537Z,12.10
2022-12-25T15:24:00.165Z,12.80
2022-12-25T15:26:33.237Z,12.10
2022-12-25T15:31:39.218Z,11.10
2022-12-25T15:34:20.396Z,11.10
2022-12-25T15:36:51.788Z,11.80
2022-12-25T15:39:24.274Z,11.20
2022-12-25T15:42:12.001Z,12.40
2022-12-25T15:44:43.415Z,11.40
2022-12-25T15:47:16.133Z,11.40
2022-12-25T15:49:49.181Z,11.80
2022-12-25T15:52:21.881Z,11.40
2022-12-25T15:54:53.620Z,11.80
2022-12-25T15:57:25.702Z,11.10
2022-12-25T15:59:58.227Z,11.00
2022-12-25T16:02:31.072Z,11.40
2022-12-25T16:05:06.881Z,11.00
2022-12-25T16:07:40.002Z,11.90
2022-12-25T16:10:16.682Z,9.90
2022-12-25T16:12:47.159Z,10.60
2022-12-25T16:15:19.734Z,10.90
2022-12-25T16:17:51.848Z,11.90
2022-12-25T16:20:24.433Z,12.40
2022-12-25T16:22:54.412Z,10.70
2022-12-25T16:25:25.859Z,10.70
2022-12-25T16:27:58.540Z,10.70
2022-12-25T16:30:31.737Z,10.30
2022-12-25T16:33:04.978Z,11.90
2022-12-25T16:35:43.702Z,10.60
2022-12-25T16:38:14.339Z,10.30
2022-12-25T16:40:47.424Z,10.90
2022-12-25T16:43:23.617Z,10.00
2022-12-25T16:45:59.185Z,10.80
2022-12-25T16:48:31.924Z,10.40
2022-12-25T16:51:10.285Z,10.20
2022-12-25T16:53:40.668Z,9.70
2022-12-25T16:56:16.272Z,10.60
2022-12-25T16:58:47.965Z,11.10
2022-12-25T17:01:20.618Z,9.80
2022-12-25T17:03:54.365Z,11.60
2022-12-25T17:06:29.503Z,10.50
2022-12-25T17:09:02.481Z,11.00
2022-12-25T17:11:35.227Z,10.90
2022-12-25T17:14:08.149Z,10.20
2022-12-25T17:16:41.759Z,11.50
2022-12-25T17:19:19.265Z,10.80
2022-12-25T17:21:49.346Z,10.80
2022-12-25T17:24:22.621Z,10.40
2022-12-25T17:26:52.714Z,9.80
2022-12-25T17:29:31.703Z,10.60
2022-12-25T17:32:10.106Z,10.00
2022-12-25T17:34:47.809Z,10.80
2022-12-25T17:37:24.334Z,10.10
2022-12-25T17:40:07.080Z,11.20
2022-12-25T17:42:44.014Z,10.70
2022-12-25T17:45:15.751Z,11.10
2022-12-25T17:47:57.042Z,9.90
2022-12-25T17:50:37.367Z,11.90
2022-12-25T17:53:13.684Z,11.80
2022-12-25T17:55:46.562Z,10.90
2022-12-25T17:58:21.023Z,11.40
2022-12-25T18:00:57.806Z,12.30
2022-12-25T18:03:29.986Z,11.10
2022-12-25T18:06:02.320Z,11.70
2022-12-25T18:08:38.866Z,11.00
2022-12-25T18:11:14.677Z,11.50
2022-12-25T18:13:49.149Z,11.50
2022-12-25T18:16:21.858Z,11.70
2022-12-25T18:18:58.880Z,11.90
2022-12-25T18:21:39.936Z,12.20
2022-12-25T18:24:21.432Z,11.80
2022-12-25T18:26:54.099Z,12.20
2022-12-25T18:29:29.461Z,13.90
2022-12-25T18:32:06.019Z,12.30
2022-12-25T18:34:36.297Z,13.60
2022-12-25T18:37:06.726Z,12.90
2022-12-25T18:39:46.934Z,14.10
2022-12-25T18:42:37.670Z,11.80
2022-12-25T18:45:11.530Z,13.10
2022-12-25T18:47:41.656Z,13.40
2022-12-25T18:50:12.965Z,12.00
2022-12-25T18:52:48.123Z,15.00
2022-12-25T18:55:26.560Z,14.10
2022-12-25T18:58:00.223Z,12.90
2022-12-25T19:03:04.066Z,14.70
2022-12-25T19:05:38.193Z,13.60
2022-12-25T19:08:16.286Z,13.40
2022-12-25T19:10:47.160Z,12.50
2022-12-25T19:13:22.299Z,11.80
2022-12-25T19:15:59.223Z,13.90
2022-12-25T19:18:37.022Z,14.10
2022-12-25T19:21:13.544Z,13.80
2022-12-25T19:23:46.688Z,12.10
2022-12-25T19:26:22.031Z,13.20
2022-12-25T19:28:55.075Z,12.30
2022-12-25T19:31:30.491Z,13.20
2022-12-25T19:34:00.490Z,12.20
2022-12-25T19:36:33.678Z,12.10
2022-12-25T19:39:04.109Z,14.10
2022-12-25T19:41:34.856Z,12.90
2022-12-25T19:44:06.248Z,11.80
2022-12-25T19:46:38.462Z,13.30
2022-12-25T19:49:12.640Z,12.30
2022-12-25T19:51:45.009Z,12.00
2022-12-25T19:54:18.256Z,12.40
2022-12-25T19:59:17.638Z,13.10
2022-12-25T20:01:50.513Z,13.20
2022-12-25T20:06:52.359Z,11.50
2022-12-25T20:09:25.204Z,13.30
2022-12-25T20:11:55.722Z,10.80
2022-12-25T20:14:28.833Z,13.50
2022-12-25T20:17:01.710Z,12.50
2022-12-25T20:19:32.029Z,12.10
2022-12-25T20:22:06.661Z,11.50
2022-12-25T20:24:37.594Z,14.30
2022-12-25T20:27:08.347Z,12.20
2022-12-25T20:29:39.844Z,12.30
2022-12-25T20:32:10.213Z,11.70
2022-12-25T20:34:40.965Z,11.60
2022-12-25T20:37:11.396Z,12.00
2022-12-25T20:39:41.621Z,11.20
2022-12-25T20:42:11.484Z,11.40
2022-12-25T20:44:41.713Z,11.30
2022-12-25T20:47:12.089Z,12.50
2022-12-25T20:49:44.821Z,12.60
2022-12-25T20:52:15.047Z,11.40
2022-12-25T20:54:44.998Z,11.80
2022-12-25T20:57:15.999Z,12.30
2022-12-25T20:59:48.760Z,13.30
2022-12-25T21:02:34.793Z,11.50
2022-12-25T21:05:11.312Z,10.40
2022-12-25T21:07:41.742Z,11.80
2022-12-25T21:10:12.633Z,11.00
2022-12-25T21:12:43.046Z,10.30
2022-12-25T21:15:18.757Z,11.70
2022-12-25T21:17:48.737Z,12.00
2022-12-25T21:20:19.035Z,12.70
2022-12-25T21:22:49.238Z,12.90
2022-12-25T21:25:21.832Z,12.20
2022-12-25T21:27:57.113Z,11.90
2022-12-25T21:30:27.364Z,13.00
2022-12-25T21:33:17.285Z,11.50
2022-12-25T21:35:49.745Z,12.80
2022-12-25T21:38:19.703Z,11.30
2022-12-25T21:40:49.783Z,12.70
2022-12-25T21:43:19.701Z,11.80
2022-12-25T21:45:52.084Z,11.50
2022-12-25T21:48:25.898Z,13.50
2022-12-25T21:51:18.626Z,11.10
2022-12-25T21:53:50.900Z,12.40
2022-12-25T21:56:25.018Z,14.40
2022-12-25T21:59:00.667Z,10.80
2022-12-25T22:01:31.722Z,11.60
2022-12-25T22:04:08.640Z,11.60
2022-12-25T22:06:59.297Z,12.50
2022-12-25T22:09:30.170Z,13.60
2022-12-25T22:12:19.510Z,11.90
2022-12-25T22:14:55.794Z,11.60
2022-12-25T22:17:50.235Z,11.00
2022-12-25T22:20:27.416Z,11.40
2022-12-25T22:23:10.537Z,11.80
2022-12-25T22:25:43.164Z,11.60
2022-12-25T22:28:25.930Z,13.00
2022-12-25T22:31:06.315Z,13.00
2022-12-25T22:33:41.220Z,11.20
2022-12-25T22:36:18.100Z,12.30
2022-12-25T22:38:50.630Z,13.40
2022-12-25T22:41:29.868Z,13.50
2022-12-25T22:44:17.061Z,13.20
2022-12-25T22:46:50.533Z,13.80
2022-12-25T22:49:21.512Z,15.20
2022-12-25T22:51:54.965Z,13.80
2022-12-25T22:54:30.819Z,13.30
2022-12-25T22:57:07.657Z,13.60
2022-12-25T22:59:43.463Z,12.80
2022-12-25T23:02:18.839Z,14.30
2022-12-25T23:04:54.578Z,12.60
2022-12-25T23:07:29.655Z,13.30
2022-12-25T23:10:04.444Z,13.90
2022-12-25T23:12:55.696Z,12.60
2022-12-25T23:15:31.061Z,12.20
2022-12-25T23:18:21.257Z,13.50
2022-12-25T23:21:19.022Z,14.10
2022-12-25T23:24:09.446Z,11.70
2022-12-25T23:29:42.552Z,12.10
2022-12-25T23:32:15.944Z,13.10
2022-12-25T23:34:49.856Z,13.30
2022-12-25T23:37:24.737Z,12.40
2022-12-25T23:39:55.117Z,12.00
2022-12-25T23:42:29.562Z,13.70
2022-12-25T23:45:07.441Z,10.20
2022-12-25T23:47:45.443Z,12.40
2022-12-25T23:50:20.457Z,13.40
2022-12-25T23:52:55.723Z,12.80
2022-12-25T23:55:30.872Z,12.60
2022-12-25T23:58:03.130Z,11.40
